Time;durP1;ratioP1;P1;durP2;ratioP2;P2;SDS_P1;SDS_P2;PMS_P1;PMS_P2;Temp;Humidity;BMP_temperature;BMP_pressure;BME280_temperature;BME280_humidity;BME280_pressure;Samples;Min_cycle;Max_cycle;Signal;HPM_P1;HPM_P2
2021/09/19 00:00:27;;;;;;;2.20;2.00;;;22.90;56.90;;;;;;5083614;28;20291;-64
2021/09/19 00:02:56;;;;;;;2.57;2.27;;;22.90;56.90;;;;;;5085711;28;20205;-63
2021/09/19 00:05:29;;;;;;;6.53;1.90;;;22.90;57.00;;;;;;5078936;28;20284;-64
2021/09/19 00:07:59;;;;;;;2.03;1.87;;;22.90;57.00;;;;;;5080015;28;20201;-64
2021/09/19 00:10:30;;;;;;;2.27;1.93;;;22.90;57.00;;;;;;5088196;28;20203;-63
2021/09/19 00:13:01;;;;;;;2.50;2.30;;;22.90;57.00;;;;;;5086103;28;20216;-63
2021/09/19 00:15:32;;;;;;;2.33;1.90;;;22.80;56.90;;;;;;5080614;28;20205;-64
2021/09/19 00:18:06;;;;;;;2.93;2.10;;;22.90;56.90;;;;;;5083757;28;20215;-64
2021/09/19 00:20:57;;;;;;;2.27;2.10;;;22.80;56.90;;;;;;5084850;28;20220;-64
2021/09/19 00:23:38;;;;;;;1.90;1.80;;;22.90;56.80;;;;;;5057686;28;20186;-63
2021/09/19 00:26:09;;;;;;;3.13;1.90;;;22.80;56.80;;;;;;5088994;28;20200;-63
2021/09/19 00:28:38;;;;;;;2.33;1.90;;;22.80;56.80;;;;;;5055035;28;20523;-64
2021/09/19 00:31:09;;;;;;;2.40;2.20;;;22.80;56.80;;;;;;5085923;28;20198;-63
2021/09/19 00:33:37;;;;;;;2.00;1.80;;;22.80;56.70;;;;;;5089518;28;20264;-64
2021/09/19 00:36:06;;;;;;;2.10;1.90;;;22.80;56.70;;;;;;5070039;28;20190;-64
2021/09/19 00:38:38;;;;;;;1.60;1.50;;;22.80;56.80;;;;;;5059375;28;20234;-64
2021/09/19 00:41:14;;;;;;;1.77;1.67;;;22.80;56.80;;;;;;5072843;28;20189;-64
2021/09/19 00:43:43;;;;;;;2.00;1.80;;;22.80;56.80;;;;;;5083365;28;20213;-63
2021/09/19 00:46:13;;;;;;;3.10;1.80;;;22.80;56.90;;;;;;5061156;28;20236;-64
2021/09/19 00:48:44;;;;;;;1.93;1.73;;;22.80;56.80;;;;;;5083183;28;20229;-64
2021/09/19 00:51:15;;;;;;;1.77;1.67;;;22.70;56.80;;;;;;5078660;28;20596;-63
2021/09/19 00:53:50;;;;;;;2.57;1.80;;;22.80;56.90;;;;;;5083721;28;20204;-64
2021/09/19 00:56:27;;;;;;;2.53;2.33;;;22.80;57.00;;;;;;5057576;28;20221;-64
2021/09/19 00:58:56;;;;;;;1.80;1.70;;;22.70;56.80;;;;;;5069767;28;20630;-64
2021/09/19 01:01:26;;;;;;;2.20;1.93;;;22.70;56.90;;;;;;5071189;28;20197;-63
2021/09/19 01:04:05;;;;;;;2.40;1.80;;;22.70;56.90;;;;;;5071357;28;20262;-64
2021/09/19 01:06:34;;;;;;;1.90;1.80;;;22.70;56.90;;;;;;5089802;28;20217;-63
2021/09/19 01:09:03;;;;;;;1.77;1.67;;;22.70;56.90;;;;;;5069701;28;20766;-63
2021/09/19 01:11:46;;;;;;;2.83;2.00;;;22.70;56.90;;;;;;5078490;28;20288;-64
2021/09/19 01:14:27;;;;;;;2.67;1.90;;;22.70;56.80;;;;;;5066100;28;20193;-64
2021/09/19 01:17:05;;;;;;;2.27;1.93;;;22.70;56.80;;;;;;5081162;28;20200;-64
2021/09/19 01:19:40;;;;;;;1.90;1.60;;;22.70;56.80;;;;;;5073576;28;20212;-63
2021/09/19 01:22:08;;;;;;;2.30;2.07;;;22.70;56.80;;;;;;5086890;28;20197;-64
2021/09/19 01:24:37;;;;;;;3.00;2.13;;;22.70;56.90;;;;;;5089014;28;20289;-64
2021/09/19 01:27:18;;;;;;;2.13;1.60;;;22.70;56.90;;;;;;5058103;28;20280;-64
2021/09/19 01:29:51;;;;;;;2.37;2.03;;;22.70;57.00;;;;;;5075664;28;20228;-63
2021/09/19 01:32:22;;;;;;;2.20;1.80;;;22.70;57.00;;;;;;5083838;28;20189;-63
2021/09/19 01:34:54;;;;;;;5.00;2.00;;;22.70;57.00;;;;;;5077738;28;20613;-64
2021/09/19 01:37:26;;;;;;;2.20;2.00;;;22.60;57.00;;;;;;5080135;28;20672;-64
2021/09/19 01:39:57;;;;;;;2.30;2.13;;;22.60;57.00;;;;;;5079366;28;20204;-64
2021/09/19 01:42:29;;;;;;;2.10;1.90;;;22.60;57.00;;;;;;5085807;28;20192;-64
2021/09/19 01:44:58;;;;;;;2.77;1.97;;;22.60;56.90;;;;;;5071421;28;20532;-64
2021/09/19 01:47:30;;;;;;;2.27;1.97;;;22.60;56.90;;;;;;5046919;28;20212;-63
2021/09/19 01:50:04;;;;;;;2.27;2.07;;;22.60;56.90;;;;;;5084552;28;20213;-63
2021/09/19 01:52:36;;;;;;;1.87;1.67;;;22.60;56.90;;;;;;5072404;28;20197;-63
2021/09/19 01:55:09;;;;;;;2.20;1.90;;;22.60;56.90;;;;;;5086050;28;20532;-64
2021/09/19 01:57:38;;;;;;;3.00;1.97;;;22.60;56.80;;;;;;5082211;28;20199;-63
2021/09/19 02:00:12;;;;;;;2.47;1.80;;;22.60;56.80;;;;;;5089160;28;20243;-63
2021/09/19 02:02:43;;;;;;;2.10;1.90;;;22.60;56.80;;;;;;5072925;28;20205;-63
2021/09/19 02:05:11;;;;;;;2.30;2.10;;;22.60;56.80;;;;;;5090307;28;20193;-64
2021/09/19 02:07:48;;;;;;;5.10;2.00;;;22.60;56.80;;;;;;5065690;28;20212;-63
2021/09/19 02:10:20;;;;;;;3.00;2.00;;;22.60;56.80;;;;;;5063645;28;20229;-64
2021/09/19 02:12:51;;;;;;;2.57;2.10;;;22.60;56.80;;;;;;5077026;28;20583;-63
2021/09/19 02:15:24;;;;;;;2.50;1.90;;;22.60;56.80;;;;;;5085248;28;20197;-63
2021/09/19 02:17:54;;;;;;;3.23;2.30;;;22.60;56.80;;;;;;5087435;28;20711;-63
2021/09/19 02:20:25;;;;;;;2.27;2.07;;;22.60;56.80;;;;;;5078681;28;20585;-63
2021/09/19 02:22:57;;;;;;;2.00;1.80;;;22.60;56.90;;;;;;5067761;28;20308;-64
2021/09/19 02:25:25;;;;;;;2.30;2.10;;;22.50;56.80;;;;;;5090298;28;20259;-64
2021/09/19 02:27:56;;;;;;;2.77;2.10;;;22.60;56.90;;;;;;5086189;28;20201;-63
2021/09/19 02:30:28;;;;;;;2.40;2.10;;;22.50;56.80;;;;;;5076239;28;20217;-63
2021/09/19 02:32:59;;;;;;;2.60;2.03;;;22.50;56.80;;;;;;5084809;28;20225;-64
2021/09/19 02:35:28;;;;;;;2.17;1.90;;;22.50;56.80;;;;;;5069984;28;20229;-63
2021/09/19 02:37:57;;;;;;;2.43;1.80;;;22.50;56.80;;;;;;5067961;28;20204;-64
2021/09/19 02:40:26;;;;;;;3.10;2.10;;;22.50;56.80;;;;;;5057744;28;20205;-64
2021/09/19 02:42:55;;;;;;;2.80;2.00;;;22.50;56.80;;;;;;5066354;28;20696;-64
2021/09/19 02:45:25;;;;;;;2.70;1.80;;;22.50;56.80;;;;;;5071226;28;20205;-63
2021/09/19 02:47:56;;;;;;;2.70;1.90;;;22.50;56.80;;;;;;5080334;28;20202;-64
2021/09/19 02:50:28;;;;;;;2.47;1.90;;;22.50;56.80;;;;;;5087063;28;20324;-64
2021/09/19 02:52:58;;;;;;;3.53;2.20;;;22.50;56.80;;;;;;5079828;28;20201;-64
2021/09/19 02:55:28;;;;;;;2.73;2.27;;;22.50;56.80;;;;;;5087449;28;20192;-64
2021/09/19 02:57:57;;;;;;;2.47;1.93;;;22.50;56.80;;;;;;5071426;28;20197;-64
2021/09/19 03:00:29;;;;;;;2.00;1.80;;;22.40;56.70;;;;;;5070268;28;20213;-64
2021/09/19 03:03:02;;;;;;;2.70;2.27;;;22.50;56.80;;;;;;5076271;28;20679;-64
2021/09/19 03:05:34;;;;;;;2.33;2.17;;;22.50;56.80;;;;;;5087924;28;20871;-64
2021/09/19 03:08:07;;;;;;;2.83;2.20;;;22.50;56.70;;;;;;5057413;28;20295;-64
2021/09/19 03:10:39;;;;;;;1.73;1.57;;;22.50;56.70;;;;;;5084570;28;20216;-64
2021/09/19 03:13:10;;;;;;;2.13;1.90;;;22.50;56.70;;;;;;5076789;28;20204;-64
2021/09/19 03:15:41;;;;;;;2.17;1.97;;;22.50;56.70;;;;;;5082663;28;20209;-64
2021/09/19 03:18:13;;;;;;;2.10;1.90;;;22.40;56.70;;;;;;5075723;28;20201;-64
2021/09/19 03:20:45;;;;;;;2.77;1.80;;;22.50;56.80;;;;;;5081550;28;20209;-64
2021/09/19 03:23:16;;;;;;;2.57;1.73;;;22.40;56.70;;;;;;5085771;28;20196;-64
2021/09/19 03:25:44;;;;;;;3.50;2.23;;;22.40;56.70;;;;;;5079138;28;20216;-64
2021/09/19 03:28:15;;;;;;;3.40;2.53;;;22.40;56.70;;;;;;5081836;28;20192;-64
2021/09/19 03:30:43;;;;;;;1.93;1.73;;;22.40;56.70;;;;;;5071600;28;20220;-64
2021/09/19 03:33:14;;;;;;;2.00;1.80;;;22.40;56.70;;;;;;5069862;28;20192;-64
2021/09/19 03:35:45;;;;;;;2.63;2.00;;;22.40;56.90;;;;;;5085077;28;20655;-64
2021/09/19 03:38:13;;;;;;;1.90;1.80;;;22.40;57.00;;;;;;5085786;28;20200;-63
2021/09/19 03:40:43;;;;;;;2.93;1.90;;;22.40;57.00;;;;;;5077535;28;20201;-64
2021/09/19 03:43:14;;;;;;;3.70;1.73;;;22.40;56.90;;;;;;5069643;28;20201;-64
2021/09/19 03:45:44;;;;;;;2.47;1.83;;;22.40;57.50;;;;;;5072513;28;20213;-63
2021/09/19 03:48:15;;;;;;;2.33;1.90;;;22.40;56.90;;;;;;5089876;28;20197;-65
2021/09/19 03:50:48;;;;;;;3.20;2.10;;;22.40;56.80;;;;;;5060304;28;20209;-64
2021/09/19 03:53:19;;;;;;;2.10;2.00;;;22.40;56.80;;;;;;5084836;28;20205;-64
2021/09/19 03:55:49;;;;;;;2.20;2.00;;;22.40;56.70;;;;;;5070232;28;20205;-64
2021/09/19 03:58:18;;;;;;;2.70;1.60;;;22.40;56.70;;;;;;5066005;28;20528;-64
2021/09/19 04:00:45;;;;;;;1.90;1.70;;;22.40;56.70;;;;;;5073270;28;20197;-64
2021/09/19 04:03:20;;;;;;;2.83;1.90;;;22.30;56.70;;;;;;5073740;28;20201;-64
2021/09/19 04:05:55;;;;;;;2.70;2.00;;;22.40;56.70;;;;;;5084817;28;20220;-64
2021/09/19 04:08:27;;;;;;;2.10;1.87;;;22.40;56.60;;;;;;5078107;28;20208;-64
2021/09/19 04:10:58;;;;;;;2.20;2.00;;;22.30;56.50;;;;;;5067000;28;20217;-64
2021/09/19 04:13:28;;;;;;;3.57;1.83;;;22.30;56.40;;;;;;5068550;28;20193;-64
2021/09/19 04:16:00;;;;;;;3.03;1.93;;;22.30;56.40;;;;;;5090068;28;20807;-64
2021/09/19 04:18:33;;;;;;;2.40;1.80;;;22.30;56.40;;;;;;5074978;28;20198;-63
2021/09/19 04:21:01;;;;;;;1.83;1.70;;;22.30;56.40;;;;;;5086222;28;20212;-64
2021/09/19 04:23:31;;;;;;;2.33;2.13;;;22.30;56.30;;;;;;5079134;28;20491;-63
2021/09/19 04:26:06;;;;;;;4.17;2.00;;;22.30;56.30;;;;;;5087955;28;20197;-63
2021/09/19 04:28:37;;;;;;;1.90;1.80;;;22.40;56.30;;;;;;5078531;28;20205;-63
2021/09/19 04:31:08;;;;;;;2.77;2.03;;;22.30;56.20;;;;;;5083548;28;20264;-64
2021/09/19 04:33:39;;;;;;;2.20;1.93;;;22.30;56.20;;;;;;5090352;28;20221;-63
2021/09/19 04:36:08;;;;;;;2.27;1.97;;;22.30;56.20;;;;;;5080336;28;20197;-63
2021/09/19 04:38:40;;;;;;;2.70;1.90;;;22.30;56.20;;;;;;5071590;28;20254;-64
2021/09/19 04:41:11;;;;;;;2.83;2.00;;;22.30;56.20;;;;;;5072387;28;20220;-63
2021/09/19 04:43:40;;;;;;;5.03;2.40;;;22.30;56.10;;;;;;5060210;28;20604;-63
2021/09/19 04:46:10;;;;;;;3.67;1.90;;;22.30;56.10;;;;;;5077840;28;20282;-63
2021/09/19 04:48:39;;;;;;;2.83;2.03;;;22.30;56.10;;;;;;5067517;28;20658;-64
2021/09/19 04:51:10;;;;;;;2.90;1.77;;;22.30;56.10;;;;;;5092408;28;20219;-63
2021/09/19 04:53:39;;;;;;;3.17;2.30;;;22.30;56.00;;;;;;5055161;28;20203;-64
2021/09/19 04:56:09;;;;;;;2.03;1.83;;;22.30;56.10;;;;;;5076732;28;20189;-64
2021/09/19 04:58:43;;;;;;;2.50;2.30;;;22.20;56.00;;;;;;5087259;28;20201;-63
2021/09/19 05:01:17;;;;;;;2.40;2.10;;;22.30;56.00;;;;;;5042994;28;20184;-63
2021/09/19 05:03:47;;;;;;;2.20;2.00;;;22.20;55.90;;;;;;5087929;28;20209;-64
2021/09/19 05:06:19;;;;;;;3.97;1.97;;;22.30;56.00;;;;;;5086407;28;20247;-63
2021/09/19 05:08:51;;;;;;;4.60;2.30;;;22.20;55.90;;;;;;5086035;28;20212;-62
2021/09/19 05:11:20;;;;;;;2.43;2.00;;;22.20;55.90;;;;;;5098759;28;20257;-65
2021/09/19 05:13:48;;;;;;;4.27;2.00;;;22.20;55.90;;;;;;5078777;28;20221;-65
2021/09/19 05:16:20;;;;;;;2.63;1.90;;;22.20;55.90;;;;;;5085601;28;20633;-63
2021/09/19 05:18:51;;;;;;;2.17;1.83;;;22.20;55.90;;;;;;5077929;28;20634;-63
2021/09/19 05:21:19;;;;;;;2.43;1.70;;;22.20;55.90;;;;;;5083431;28;20209;-64
2021/09/19 05:23:50;;;;;;;2.33;2.10;;;22.20;55.90;;;;;;5078938;28;20201;-64
2021/09/19 05:26:27;;;;;;;3.43;2.37;;;22.20;55.90;;;;;;5079325;28;20193;-64
2021/09/19 05:28:57;;;;;;;2.27;2.07;;;22.20;55.90;;;;;;5082698;28;20208;-64
2021/09/19 05:31:25;;;;;;;2.50;2.17;;;22.20;55.90;;;;;;5070158;28;20219;-64
2021/09/19 05:33:57;;;;;;;2.23;2.00;;;22.20;55.90;;;;;;5068096;28;20221;-63
2021/09/19 05:36:32;;;;;;;3.93;2.10;;;22.20;55.80;;;;;;5051064;28;20197;-63
2021/09/19 05:39:03;;;;;;;2.20;2.00;;;22.20;55.80;;;;;;5071679;28;20209;-64
2021/09/19 05:41:35;;;;;;;2.43;2.07;;;22.20;55.80;;;;;;5080662;28;20186;-64
2021/09/19 05:44:06;;;;;;;2.57;2.13;;;22.20;55.80;;;;;;5064832;28;20209;-64
2021/09/19 05:46:36;;;;;;;4.77;2.30;;;22.20;55.80;;;;;;5088126;28;20192;-64
2021/09/19 05:49:07;;;;;;;3.17;2.43;;;22.20;55.80;;;;;;5072212;28;20208;-64
2021/09/19 05:51:39;;;;;;;4.03;2.30;;;22.10;55.70;;;;;;5073087;28;20190;-64
2021/09/19 05:54:10;;;;;;;5.97;2.40;;;22.10;55.80;;;;;;5088909;28;20185;-63
2021/09/19 05:56:40;;;;;;;2.83;2.20;;;22.10;55.80;;;;;;5075664;28;20244;-64
2021/09/19 05:59:10;;;;;;;3.23;2.20;;;22.10;55.80;;;;;;5086214;28;20251;-64
2021/09/19 06:01:41;;;;;;;3.00;2.70;;;22.10;55.70;;;;;;5082034;28;20193;-66
2021/09/19 06:04:12;;;;;;;2.30;2.10;;;22.10;55.90;;;;;;5086276;28;20208;-65
2021/09/19 06:06:43;;;;;;;5.70;2.60;;;22.10;56.00;;;;;;5079376;28;20294;-66
2021/09/19 06:09:14;;;;;;;6.10;2.20;;;22.10;56.00;;;;;;5083465;28;20733;-65
2021/09/19 06:11:44;;;;;;;3.20;2.07;;;22.10;56.10;;;;;;5090187;28;20212;-66
2021/09/19 06:14:12;;;;;;;2.40;2.20;;;22.10;56.10;;;;;;5085675;28;20181;-66
2021/09/19 06:16:42;;;;;;;5.73;2.47;;;22.10;56.10;;;;;;5072093;28;20197;-66
2021/09/19 06:19:12;;;;;;;4.23;2.40;;;22.10;56.10;;;;;;5084550;28;20201;-66
2021/09/19 06:21:44;;;;;;;3.30;2.47;;;22.10;56.10;;;;;;5077374;28;20232;-63
2021/09/19 06:24:15;;;;;;;2.83;2.40;;;22.10;56.10;;;;;;5087262;28;20208;-63
2021/09/19 06:26:45;;;;;;;2.93;2.50;;;22.10;56.20;;;;;;5088512;28;20201;-63
2021/09/19 06:29:16;;;;;;;4.50;2.50;;;22.10;56.10;;;;;;5077454;28;20202;-63
2021/09/19 06:31:59;;;;;;;3.10;2.50;;;22.10;56.20;;;;;;5084033;28;20654;-66
2021/09/19 06:34:28;;;;;;;3.93;2.43;;;22.10;56.10;;;;;;5072533;28;20229;-66
2021/09/19 06:37:00;;;;;;;4.00;2.27;;;22.10;56.20;;;;;;5085654;28;20701;-66
2021/09/19 06:39:29;;;;;;;2.50;2.30;;;22.10;56.20;;;;;;5071009;28;20189;-66
2021/09/19 06:42:02;;;;;;;2.87;2.03;;;22.10;56.30;;;;;;5084478;28;20281;-63
2021/09/19 06:44:33;;;;;;;3.37;2.10;;;22.10;56.30;;;;;;5045234;28;20189;-63
2021/09/19 06:47:03;;;;;;;3.23;2.37;;;22.10;56.30;;;;;;5087787;28;20185;-66
2021/09/19 06:49:31;;;;;;;2.30;2.10;;;22.10;56.30;;;;;;5084478;28;20799;-66
2021/09/19 06:52:00;;;;;;;2.63;2.43;;;22.10;56.30;;;;;;5087362;28;20185;-63
2021/09/19 06:54:30;;;;;;;3.13;2.83;;;22.10;56.30;;;;;;5070445;28;20193;-63
2021/09/19 06:57:02;;;;;;;3.03;2.60;;;22.10;56.30;;;;;;5087188;28;20193;-67
2021/09/19 06:59:30;;;;;;;4.30;2.80;;;22.10;56.40;;;;;;5097928;28;20266;-66
2021/09/19 07:02:02;;;;;;;3.40;2.40;;;22.10;56.30;;;;;;5078942;28;20631;-66
2021/09/19 07:04:35;;;;;;;8.90;2.40;;;22.10;56.40;;;;;;5084315;28;20297;-66
2021/09/19 07:07:03;;;;;;;3.23;2.30;;;22.00;56.40;;;;;;5086750;28;20196;-66
2021/09/19 07:09:34;;;;;;;13.53;3.30;;;22.00;56.40;;;;;;5071397;28;20270;-66
2021/09/19 07:12:03;;;;;;;10.50;3.20;;;22.10;56.60;;;;;;5063695;28;20291;-64
2021/09/19 07:14:38;;;;;;;12.60;3.30;;;22.10;56.50;;;;;;5085371;28;20209;-64
2021/09/19 07:17:09;;;;;;;13.27;2.90;;;22.10;56.50;;;;;;5085410;28;20930;-64
2021/09/19 07:19:41;;;;;;;9.00;3.27;;;22.10;56.50;;;;;;5089907;28;20251;-63
2021/09/19 07:22:08;;;;;;;7.63;3.60;;;22.00;56.50;;;;;;5087691;28;20220;-63
2021/09/19 07:24:39;;;;;;;7.83;3.23;;;22.10;57.20;;;;;;5071212;28;20742;-63
2021/09/19 07:27:13;;;;;;;8.23;3.50;;;22.10;57.40;;;;;;5067355;28;20622;-63
2021/09/19 07:29:43;;;;;;;5.07;2.70;;;22.00;57.20;;;;;;5073110;28;20213;-63
2021/09/19 07:32:14;;;;;;;8.23;3.40;;;22.00;57.60;;;;;;5079144;28;20212;-65
2021/09/19 07:34:44;;;;;;;8.40;3.00;;;22.10;57.90;;;;;;5085980;28;20226;-66
2021/09/19 07:37:14;;;;;;;6.63;2.63;;;22.10;57.50;;;;;;5084683;28;20603;-67
2021/09/19 07:39:45;;;;;;;8.07;2.87;;;22.20;57.30;;;;;;5054722;28;20561;-65
2021/09/19 07:42:15;;;;;;;3.97;2.47;;;22.20;57.30;;;;;;5090696;28;20205;-69
2021/09/19 07:44:48;;;;;;;13.23;2.80;;;22.30;57.30;;;;;;5088888;28;20228;-68
2021/09/19 07:47:28;;;;;;;5.53;2.60;;;22.30;57.00;;;;;;5086341;28;20205;-68
2021/09/19 07:50:00;;;;;;;7.87;2.90;;;22.40;56.90;;;;;;5074993;28;20199;-66
2021/09/19 07:52:32;;;;;;;4.57;2.93;;;22.40;57.30;;;;;;5071636;28;20200;-65
2021/09/19 07:55:02;;;;;;;3.77;2.70;;;22.50;57.10;;;;;;5085438;28;20193;-65
2021/09/19 07:57:36;;;;;;;4.97;3.10;;;22.50;56.80;;;;;;5068088;28;20205;-63
2021/09/19 08:00:09;;;;;;;4.87;3.30;;;22.50;56.90;;;;;;5091624;28;20678;-63
2021/09/19 08:02:44;;;;;;;3.87;3.17;;;22.60;59.00;;;;;;5073785;28;20204;-63
2021/09/19 08:05:18;;;;;;;7.23;3.33;;;22.60;59.30;;;;;;5086787;28;20507;-62
2021/09/19 08:07:46;;;;;;;4.33;3.00;;;22.70;58.90;;;;;;5082527;28;20307;-62
2021/09/19 08:10:17;;;;;;;6.53;3.20;;;22.70;58.70;;;;;;5070711;28;20221;-63
2021/09/19 08:12:48;;;;;;;6.17;3.17;;;22.70;58.40;;;;;;5069412;28;20576;-69
2021/09/19 08:15:21;;;;;;;4.17;2.93;;;22.80;58.30;;;;;;5070783;28;20225;-66
2021/09/19 08:17:49;;;;;;;5.53;2.90;;;22.80;58.00;;;;;;5088496;28;20185;-67
2021/09/19 08:20:20;;;;;;;4.97;3.77;;;22.90;57.70;;;;;;5073036;28;20212;-68
2021/09/19 08:22:50;;;;;;;6.70;3.50;;;22.90;57.40;;;;;;5050934;28;20209;-68
2021/09/19 08:25:22;;;;;;;7.00;3.50;;;22.90;56.90;;;;;;5067406;28;20207;-68
2021/09/19 08:28:03;;;;;;;5.27;3.60;;;22.90;56.70;;;;;;5080460;28;20197;-68
2021/09/19 08:30:45;;;;;;;4.17;3.60;;;22.90;56.50;;;;;;5084147;28;20307;-68
2021/09/19 08:33:17;;;;;;;6.13;4.80;;;22.80;56.40;;;;;;5087566;28;20197;-68
2021/09/19 08:35:46;;;;;;;4.20;3.80;;;22.80;56.40;;;;;;5086950;28;20948;-69
2021/09/19 08:38:18;;;;;;;4.63;3.30;;;22.90;56.40;;;;;;5062138;28;20189;-69
2021/09/19 08:40:51;;;;;;;3.57;3.20;;;22.80;56.30;;;;;;5086895;28;20213;-65
2021/09/19 08:43:24;;;;;;;4.50;3.40;;;22.80;56.20;;;;;;5064027;28;20310;-65
2021/09/19 08:45:55;;;;;;;3.40;3.00;;;22.80;56.30;;;;;;5078989;28;20296;-65
2021/09/19 08:48:28;;;;;;;4.53;3.20;;;22.80;56.40;;;;;;5083687;28;20395;-65
2021/09/19 08:51:03;;;;;;;3.87;2.90;;;22.80;56.40;;;;;;5084244;28;20524;-64
2021/09/19 08:53:33;;;;;;;6.23;3.50;;;22.80;56.40;;;;;;5085334;28;20212;-65
2021/09/19 08:56:04;;;;;;;3.00;2.70;;;22.80;56.50;;;;;;5067417;28;20212;-68
2021/09/19 08:58:41;;;;;;;4.80;2.77;;;22.80;56.50;;;;;;5063622;28;20661;-68
2021/09/19 09:01:11;;;;;;;5.23;2.90;;;22.80;56.50;;;;;;5069880;28;20212;-66
2021/09/19 09:03:44;;;;;;;12.87;3.10;;;22.70;56.70;;;;;;5070041;28;20549;-67
2021/09/19 09:06:20;;;;;;;3.97;2.63;;;22.80;56.80;;;;;;5084362;28;20204;-69
2021/09/19 09:08:51;;;;;;;3.93;3.00;;;22.80;56.60;;;;;;5073983;28;20241;-68
2021/09/19 09:11:21;;;;;;;3.93;3.00;;;22.80;56.60;;;;;;5088424;28;20681;-65
2021/09/19 09:13:53;;;;;;;5.53;2.80;;;22.70;56.40;;;;;;5084910;28;20231;-64
2021/09/19 09:16:22;;;;;;;3.40;2.80;;;22.70;57.50;;;;;;5084161;28;20284;-64
2021/09/19 09:18:54;;;;;;;5.57;2.43;;;22.70;57.70;;;;;;5083744;28;20236;-64
2021/09/19 09:21:23;;;;;;;5.10;2.27;;;22.70;58.60;;;;;;5069795;28;20269;-63
2021/09/19 09:23:54;;;;;;;5.37;2.70;;;22.70;59.50;;;;;;5048795;28;20613;-64
2021/09/19 09:26:38;;;;;;;8.47;3.00;;;22.70;59.50;;;;;;5066428;28;20620;-65
2021/09/19 09:29:16;;;;;;;3.10;2.43;;;22.70;58.90;;;;;;5077360;28;20282;-65
2021/09/19 09:31:53;;;;;;;3.33;2.67;;;22.70;59.00;;;;;;5072969;28;20272;-66
2021/09/19 09:34:26;;;;;;;3.93;2.70;;;22.60;59.70;;;;;;5090038;28;20306;-66
2021/09/19 09:37:06;;;;;;;7.93;3.40;;;22.70;60.50;;;;;;5090981;28;20415;-66
2021/09/19 09:39:42;;;;;;;20.47;5.20;;;22.60;60.00;;;;;;5073941;28;20188;-65
2021/09/19 09:42:23;;;;;;;8.93;3.33;;;22.60;60.30;;;;;;5068156;28;20192;-63
2021/09/19 09:44:56;;;;;;;10.20;3.40;;;22.60;60.90;;;;;;5084845;28;20197;-63
2021/09/19 09:47:41;;;;;;;5.80;3.03;;;22.60;60.10;;;;;;5085235;28;20221;-65
2021/09/19 09:50:09;;;;;;;2.90;2.53;;;22.60;59.80;;;;;;5089745;28;20195;-63
2021/09/19 09:52:37;;;;;;;5.20;2.83;;;22.60;59.90;;;;;;5086860;28;20213;-63
2021/09/19 09:55:10;;;;;;;4.13;2.60;;;22.60;60.30;;;;;;5072702;28;20699;-64
2021/09/19 09:57:58;;;;;;;2.73;2.37;;;22.60;60.60;;;;;;5066012;28;20257;-65
2021/09/19 10:00:31;;;;;;;6.17;2.47;;;22.60;60.90;;;;;;5089007;28;20247;-63
2021/09/19 10:03:10;;;;;;;3.33;2.20;;;22.60;61.10;;;;;;5061437;28;20251;-63
2021/09/19 10:05:42;;;;;;;4.17;2.50;;;22.60;60.70;;;;;;5081540;28;20201;-63
2021/09/19 10:08:12;;;;;;;2.97;2.40;;;22.60;60.40;;;;;;5060640;28;20206;-63
2021/09/19 10:10:46;;;;;;;3.67;2.60;;;22.60;60.70;;;;;;5079904;28;20291;-63
2021/09/19 10:13:16;;;;;;;3.00;2.70;;;22.60;61.20;;;;;;5105582;28;20506;-63
2021/09/19 10:16:07;;;;;;;2.33;2.10;;;22.60;61.30;;;;;;5086039;28;20208;-65
2021/09/19 10:18:48;;;;;;;2.63;2.43;;;22.60;61.60;;;;;;5079591;28;20258;-66
2021/09/19 10:21:29;;;;;;;3.03;2.53;;;22.60;61.40;;;;;;5088153;28;20625;-64
2021/09/19 10:24:00;;;;;;;2.63;2.20;;;22.60;61.70;;;;;;5060505;28;20224;-65
2021/09/19 10:26:32;;;;;;;3.90;2.63;;;22.60;62.40;;;;;;5080839;28;20206;-63
2021/09/19 10:29:03;;;;;;;3.30;3.00;;;22.60;61.50;;;;;;5061215;28;20395;-63
2021/09/19 10:31:40;;;;;;;3.17;2.87;;;22.60;61.40;;;;;;5072853;28;20213;-65
2021/09/19 10:34:10;;;;;;;3.63;2.87;;;22.60;60.90;;;;;;5052230;28;20665;-65
2021/09/19 10:36:45;;;;;;;3.80;2.97;;;22.60;60.70;;;;;;5090746;28;20182;-65
2021/09/19 10:39:22;;;;;;;2.30;2.13;;;22.60;60.40;;;;;;5069437;28;20185;-65
2021/09/19 10:42:39;;;;;;;2.60;2.40;;;22.60;59.90;;;;;;5053567;28;20198;-65
2021/09/19 10:45:13;;;;;;;2.97;2.70;;;22.60;60.40;;;;;;5000079;28;20744;-65
2021/09/19 10:48:07;;;;;;;2.57;2.37;;;22.60;60.10;;;;;;5065671;28;20211;-66
2021/09/19 10:50:37;;;;;;;2.50;2.30;;;22.50;60.10;;;;;;5063078;28;20206;-63
2021/09/19 10:53:16;;;;;;;2.60;1.80;;;22.60;60.70;;;;;;5064160;28;20279;-64
2021/09/19 10:56:17;;;;;;;2.60;1.70;;;22.60;61.30;;;;;;5073029;28;20201;-65
2021/09/19 10:58:48;;;;;;;2.37;1.90;;;22.60;62.10;;;;;;5066947;28;20190;-66
2021/09/19 11:01:28;;;;;;;2.23;2.13;;;22.60;62.00;;;;;;5074948;28;20193;-65
2021/09/19 11:04:12;;;;;;;2.53;1.90;;;22.60;61.60;;;;;;5085304;28;20181;-65
2021/09/19 11:06:49;;;;;;;2.40;2.20;;;22.60;61.00;;;;;;5084653;28;20659;-66
2021/09/19 11:09:21;;;;;;;2.17;1.90;;;22.60;60.70;;;;;;5090045;28;20201;-66
2021/09/19 11:12:17;;;;;;;3.93;2.20;;;22.60;60.10;;;;;;5083099;28;20296;-66
2021/09/19 11:15:14;;;;;;;3.27;1.87;;;22.60;59.90;;;;;;5086733;28;20262;-66
2021/09/19 11:18:07;;;;;;;4.70;1.90;;;22.60;60.70;;;;;;5076552;28;20226;-66
2021/09/19 11:20:41;;;;;;;2.13;1.73;;;22.60;61.20;;;;;;5062872;28;20721;-66
2021/09/19 11:23:27;;;;;;;2.80;1.70;;;22.60;60.50;;;;;;5071499;28;20610;-66
2021/09/19 11:26:03;;;;;;;1.83;1.70;;;22.60;60.60;;;;;;5067006;28;20267;-65
2021/09/19 11:28:45;;;;;;;1.73;1.63;;;22.60;61.50;;;;;;5071493;28;20250;-65
2021/09/19 11:31:19;;;;;;;1.80;1.70;;;22.70;60.50;;;;;;5066373;28;20208;-63
2021/09/19 11:33:49;;;;;;;1.93;1.57;;;22.60;60.80;;;;;;5086775;28;20208;-64
2021/09/19 11:36:21;;;;;;;1.70;1.60;;;22.70;61.10;;;;;;5066642;28;20197;-65
2021/09/19 11:38:57;;;;;;;1.87;1.77;;;22.70;61.00;;;;;;5058522;28;20189;-66
2021/09/19 11:41:31;;;;;;;4.27;1.77;;;22.70;60.80;;;;;;5071178;28;20201;-64
2021/09/19 11:44:01;;;;;;;2.07;1.87;;;22.70;60.00;;;;;;5084377;28;20201;-64
2021/09/19 11:46:34;;;;;;;1.93;1.77;;;22.70;60.40;;;;;;5093171;28;20208;-65
2021/09/19 11:49:05;;;;;;;1.93;1.73;;;22.70;60.30;;;;;;5087895;28;20211;-65
2021/09/19 11:51:38;;;;;;;4.73;1.77;;;22.70;60.30;;;;;;5089045;28;20221;-64
2021/09/19 11:54:12;;;;;;;1.40;1.30;;;22.70;60.30;;;;;;5068920;28;20209;-64
2021/09/19 11:56:47;;;;;;;1.50;1.40;;;22.70;60.60;;;;;;5077168;28;20293;-63
2021/09/19 11:59:18;;;;;;;1.60;1.43;;;22.70;60.10;;;;;;5085380;28;20181;-64
2021/09/19 12:01:46;;;;;;;1.90;1.80;;;22.70;60.50;;;;;;5075032;28;20209;-64
2021/09/19 12:04:19;;;;;;;3.23;1.80;;;22.70;59.10;;;;;;5088663;28;20201;-64
2021/09/19 12:06:58;;;;;;;1.87;1.77;;;22.70;59.30;;;;;;5089228;28;20224;-64
2021/09/19 12:09:29;;;;;;;2.00;1.80;;;22.80;59.70;;;;;;5077366;28;20188;-64
2021/09/19 12:11:59;;;;;;;2.00;1.80;;;22.70;59.50;;;;;;5089240;28;20224;-67
2021/09/19 12:14:28;;;;;;;2.10;1.90;;;22.80;60.40;;;;;;5090994;28;20794;-66
2021/09/19 12:17:08;;;;;;;1.80;1.70;;;22.80;59.90;;;;;;5057675;28;20185;-64
2021/09/19 12:19:42;;;;;;;1.80;1.70;;;22.80;59.90;;;;;;5086547;28;20573;-64
2021/09/19 12:22:25;;;;;;;2.20;2.00;;;22.80;59.70;;;;;;5072189;28;20755;-66
2021/09/19 12:25:10;;;;;;;1.80;1.70;;;22.80;59.50;;;;;;5082500;28;20233;-65
2021/09/19 12:27:49;;;;;;;2.60;1.83;;;22.80;59.30;;;;;;5059759;28;20247;-63
2021/09/19 12:30:22;;;;;;;9.10;2.00;;;22.80;59.40;;;;;;5084847;28;20296;-67
2021/09/19 12:32:56;;;;;;;9.13;2.50;;;22.80;60.10;;;;;;5090165;28;20209;-65
2021/09/19 12:35:33;;;;;;;5.70;2.00;;;22.90;59.80;;;;;;5087018;28;20239;-67
2021/09/19 12:38:10;;;;;;;5.80;1.70;;;23.00;59.80;;;;;;5056580;28;20203;-67
2021/09/19 12:40:41;;;;;;;5.87;1.97;;;23.00;59.70;;;;;;5088740;28;20203;-65
2021/09/19 12:43:17;;;;;;;2.73;1.70;;;23.10;59.80;;;;;;5071878;28;20686;-67
2021/09/19 12:45:54;;;;;;;2.33;1.70;;;23.10;59.30;;;;;;5070661;28;20193;-67
2021/09/19 12:48:30;;;;;;;1.87;1.67;;;23.20;59.10;;;;;;5083409;28;20713;-67
2021/09/19 12:51:03;;;;;;;1.83;1.40;;;23.20;59.00;;;;;;5068148;28;20210;-66
2021/09/19 12:53:35;;;;;;;1.63;1.53;;;23.20;58.40;;;;;;5063628;28;20225;-66
2021/09/19 12:56:06;;;;;;;1.70;1.50;;;23.20;58.10;;;;;;5084540;28;20214;-66
2021/09/19 12:58:37;;;;;;;1.53;1.43;;;23.30;58.30;;;;;;5087597;28;20660;-67
2021/09/19 13:01:10;;;;;;;1.47;1.37;;;23.30;58.20;;;;;;5083926;28;20522;-66
2021/09/19 13:03:39;;;;;;;2.97;1.50;;;23.30;58.10;;;;;;5088433;28;20241;-65
2021/09/19 13:06:09;;;;;;;2.37;1.30;;;23.30;58.80;;;;;;5085026;28;20236;-66
2021/09/19 13:08:39;;;;;;;1.47;1.37;;;23.40;58.90;;;;;;5088930;28;20570;-66
2021/09/19 13:11:07;;;;;;;2.37;1.40;;;23.40;59.30;;;;;;5084307;28;20531;-66
2021/09/19 13:13:36;;;;;;;1.40;1.30;;;23.50;59.30;;;;;;5074145;28;20850;-66